sensor_id;sensor_type;location;lat;lon;timestamp;P1;durP1;ratioP1;P2;durP2;ratioP2
56860;SDS011;42744;51.094;3.490;2023-04-06T00:01:58;39.03;;;29.50;;
56860;SDS011;42744;51.094;3.490;2023-04-06T00:04:24;41.33;;;29.63;;
56860;SDS011;42744;51.094;3.490;2023-04-06T00:06:50;40.93;;;30.13;;
56860;SDS011;42744;51.094;3.490;2023-04-06T00:09:16;41.87;;;30.07;;
56860;SDS011;42744;51.094;3.490;2023-04-06T00:11:43;42.67;;;29.90;;
56860;SDS011;42744;51.094;3.490;2023-04-06T00:14:09;43.63;;;30.33;;
56860;SDS011;42744;51.094;3.490;2023-04-06T00:16:35;41.57;;;30.40;;
56860;SDS011;42744;51.094;3.490;2023-04-06T00:19:01;43.17;;;30.30;;
56860;SDS011;42744;51.094;3.490;2023-04-06T00:21:27;43.23;;;30.77;;
56860;SDS011;42744;51.094;3.490;2023-04-06T00:23:53;42.20;;;31.03;;
56860;SDS011;42744;51.094;3.490;2023-04-06T00:26:19;42.33;;;30.63;;
56860;SDS011;42744;51.094;3.490;2023-04-06T00:28:46;43.73;;;30.80;;
56860;SDS011;42744;51.094;3.490;2023-04-06T00:31:12;45.83;;;31.57;;
56860;SDS011;42744;51.094;3.490;2023-04-06T00:33:38;43.67;;;31.60;;
56860;SDS011;42744;51.094;3.490;2023-04-06T00:36:04;44.57;;;32.40;;
56860;SDS011;42744;51.094;3.490;2023-04-06T00:38:31;47.90;;;32.53;;
56860;SDS011;42744;51.094;3.490;2023-04-06T00:40:57;42.77;;;31.97;;
56860;SDS011;42744;51.094;3.490;2023-04-06T00:43:23;42.70;;;31.17;;
56860;SDS011;42744;51.094;3.490;2023-04-06T00:45:49;44.87;;;30.80;;
56860;SDS011;42744;51.094;3.490;2023-04-06T00:48:16;46.00;;;32.50;;
56860;SDS011;42744;51.094;3.490;2023-04-06T00:50:42;46.23;;;31.83;;
56860;SDS011;42744;51.094;3.490;2023-04-06T00:53:08;48.60;;;33.50;;
56860;SDS011;42744;51.094;3.490;2023-04-06T00:55:35;49.83;;;34.30;;
56860;SDS011;42744;51.094;3.490;2023-04-06T00:58:01;52.20;;;34.00;;
56860;SDS011;42744;51.094;3.490;2023-04-06T01:00:30;53.30;;;33.97;;
56860;SDS011;42744;51.094;3.490;2023-04-06T01:02:57;51.23;;;34.87;;
56860;SDS011;42744;51.094;3.490;2023-04-06T01:05:26;49.83;;;34.33;;
56860;SDS011;42744;51.094;3.490;2023-04-06T01:07:52;50.77;;;34.50;;
56860;SDS011;42744;51.094;3.490;2023-04-06T01:10:26;51.77;;;34.50;;
56860;SDS011;42744;51.094;3.490;2023-04-06T01:12:53;49.80;;;35.87;;
56860;SDS011;42744;51.094;3.490;2023-04-06T01:15:21;52.30;;;33.70;;
56860;SDS011;42744;51.094;3.490;2023-04-06T01:17:48;52.80;;;35.63;;
56860;SDS011;42744;51.094;3.490;2023-04-06T01:20:15;51.37;;;35.17;;
56860;SDS011;42744;51.094;3.490;2023-04-06T01:22:42;52.77;;;35.00;;
56860;SDS011;42744;51.094;3.490;2023-04-06T01:25:09;51.53;;;35.47;;
56860;SDS011;42744;51.094;3.490;2023-04-06T01:27:36;49.70;;;33.80;;
56860;SDS011;42744;51.094;3.490;2023-04-06T01:30:04;50.80;;;33.70;;
56860;SDS011;42744;51.094;3.490;2023-04-06T01:32:30;47.73;;;33.30;;
56860;SDS011;42744;51.094;3.490;2023-04-06T01:34:56;53.33;;;35.20;;
56860;SDS011;42744;51.094;3.490;2023-04-06T01:37:23;55.80;;;35.77;;
56860;SDS011;42744;51.094;3.490;2023-04-06T01:39:51;51.93;;;33.50;;
56860;SDS011;42744;51.094;3.490;2023-04-06T01:42:19;55.93;;;34.97;;
56860;SDS011;42744;51.094;3.490;2023-04-06T01:44:46;53.93;;;35.93;;
56860;SDS011;42744;51.094;3.490;2023-04-06T01:47:12;50.60;;;33.80;;
56860;SDS011;42744;51.094;3.490;2023-04-06T01:49:38;54.27;;;34.73;;
56860;SDS011;42744;51.094;3.490;2023-04-06T01:52:05;50.27;;;35.17;;
56860;SDS011;42744;51.094;3.490;2023-04-06T01:54:32;50.70;;;33.67;;
56860;SDS011;42744;51.094;3.490;2023-04-06T01:57:01;52.03;;;33.90;;
56860;SDS011;42744;51.094;3.490;2023-04-06T01:59:27;48.80;;;33.47;;
56860;SDS011;42744;51.094;3.490;2023-04-06T02:01:54;50.10;;;32.93;;
56860;SDS011;42744;51.094;3.490;2023-04-06T02:04:22;49.17;;;33.07;;
56860;SDS011;42744;51.094;3.490;2023-04-06T02:06:50;48.20;;;32.63;;
56860;SDS011;42744;51.094;3.490;2023-04-06T02:09:18;51.27;;;33.47;;
56860;SDS011;42744;51.094;3.490;2023-04-06T02:11:45;55.07;;;33.53;;
56860;SDS011;42744;51.094;3.490;2023-04-06T02:14:11;49.07;;;31.83;;
56860;SDS011;42744;51.094;3.490;2023-04-06T02:16:38;52.53;;;32.63;;
56860;SDS011;42744;51.094;3.490;2023-04-06T02:19:04;53.07;;;31.10;;
56860;SDS011;42744;51.094;3.490;2023-04-06T02:21:33;47.07;;;30.77;;
56860;SDS011;42744;51.094;3.490;2023-04-06T02:23:59;45.47;;;31.17;;
56860;SDS011;42744;51.094;3.490;2023-04-06T02:26:25;50.87;;;31.13;;
56860;SDS011;42744;51.094;3.490;2023-04-06T02:28:51;50.00;;;29.93;;
56860;SDS011;42744;51.094;3.490;2023-04-06T02:31:18;45.20;;;29.83;;
56860;SDS011;42744;51.094;3.490;2023-04-06T02:33:44;47.57;;;29.03;;
56860;SDS011;42744;51.094;3.490;2023-04-06T02:36:12;48.10;;;29.60;;
56860;SDS011;42744;51.094;3.490;2023-04-06T02:38:38;43.23;;;27.77;;
56860;SDS011;42744;51.094;3.490;2023-04-06T02:41:04;50.87;;;29.30;;
56860;SDS011;42744;51.094;3.490;2023-04-06T02:43:30;51.23;;;25.47;;
56860;SDS011;42744;51.094;3.490;2023-04-06T02:45:57;42.30;;;26.23;;
56860;SDS011;42744;51.094;3.490;2023-04-06T02:48:24;46.43;;;26.53;;
56860;SDS011;42744;51.094;3.490;2023-04-06T02:50:51;43.17;;;26.03;;
56860;SDS011;42744;51.094;3.490;2023-04-06T02:53:18;42.77;;;25.77;;
56860;SDS011;42744;51.094;3.490;2023-04-06T02:55:44;42.50;;;24.80;;
56860;SDS011;42744;51.094;3.490;2023-04-06T02:58:10;45.40;;;27.93;;
56860;SDS011;42744;51.094;3.490;2023-04-06T03:00:36;43.30;;;25.90;;
56860;SDS011;42744;51.094;3.490;2023-04-06T03:03:02;42.43;;;24.73;;
56860;SDS011;42744;51.094;3.490;2023-04-06T03:05:29;40.83;;;25.60;;
56860;SDS011;42744;51.094;3.490;2023-04-06T03:07:56;44.53;;;25.00;;
56860;SDS011;42744;51.094;3.490;2023-04-06T03:10:22;46.20;;;26.27;;
56860;SDS011;42744;51.094;3.490;2023-04-06T03:12:48;45.23;;;26.40;;
56860;SDS011;42744;51.094;3.490;2023-04-06T03:15:15;39.67;;;25.07;;
56860;SDS011;42744;51.094;3.490;2023-04-06T03:17:41;46.03;;;25.37;;
56860;SDS011;42744;51.094;3.490;2023-04-06T03:20:12;38.43;;;24.60;;
56860;SDS011;42744;51.094;3.490;2023-04-06T03:22:38;38.50;;;23.23;;
56860;SDS011;42744;51.094;3.490;2023-04-06T03:25:05;39.53;;;23.60;;
56860;SDS011;42744;51.094;3.490;2023-04-06T03:27:32;39.47;;;23.70;;
56860;SDS011;42744;51.094;3.490;2023-04-06T03:29:58;39.80;;;23.60;;
56860;SDS011;42744;51.094;3.490;2023-04-06T03:32:26;37.27;;;22.07;;
56860;SDS011;42744;51.094;3.490;2023-04-06T03:34:52;38.90;;;23.53;;
56860;SDS011;42744;51.094;3.490;2023-04-06T03:37:18;38.30;;;23.87;;
56860;SDS011;42744;51.094;3.490;2023-04-06T03:39:45;39.57;;;23.60;;
56860;SDS011;42744;51.094;3.490;2023-04-06T03:42:13;41.63;;;22.70;;
56860;SDS011;42744;51.094;3.490;2023-04-06T03:44:40;38.23;;;23.13;;
56860;SDS011;42744;51.094;3.490;2023-04-06T03:47:07;37.57;;;23.07;;
56860;SDS011;42744;51.094;3.490;2023-04-06T03:49:32;37.93;;;24.00;;
56860;SDS011;42744;51.094;3.490;2023-04-06T03:52:00;34.83;;;21.47;;
56860;SDS011;42744;51.094;3.490;2023-04-06T03:54:27;35.70;;;22.67;;
56860;SDS011;42744;51.094;3.490;2023-04-06T03:56:53;33.27;;;21.40;;
56860;SDS011;42744;51.094;3.490;2023-04-06T03:59:20;34.40;;;21.30;;
56860;SDS011;42744;51.094;3.490;2023-04-06T04:01:46;36.83;;;22.30;;
56860;SDS011;42744;51.094;3.490;2023-04-06T04:04:12;35.60;;;23.00;;
56860;SDS011;42744;51.094;3.490;2023-04-06T04:06:38;34.93;;;21.73;;
56860;SDS011;42744;51.094;3.490;2023-04-06T04:09:05;33.87;;;22.20;;
56860;SDS011;42744;51.094;3.490;2023-04-06T04:11:31;37.70;;;22.67;;
56860;SDS011;42744;51.094;3.490;2023-04-06T04:13:58;34.77;;;22.13;;
56860;SDS011;42744;51.094;3.490;2023-04-06T04:16:24;36.80;;;21.13;;
56860;SDS011;42744;51.094;3.490;2023-04-06T04:18:50;33.23;;;20.00;;
56860;SDS011;42744;51.094;3.490;2023-04-06T04:21:16;34.60;;;20.37;;
56860;SDS011;42744;51.094;3.490;2023-04-06T04:23:42;31.93;;;21.23;;
56860;SDS011;42744;51.094;3.490;2023-04-06T04:26:08;35.33;;;20.67;;
56860;SDS011;42744;51.094;3.490;2023-04-06T04:28:35;33.97;;;20.53;;
56860;SDS011;42744;51.094;3.490;2023-04-06T04:31:01;33.87;;;20.70;;
56860;SDS011;42744;51.094;3.490;2023-04-06T04:33:29;29.13;;;18.97;;
56860;SDS011;42744;51.094;3.490;2023-04-06T04:35:56;31.80;;;20.90;;
56860;SDS011;42744;51.094;3.490;2023-04-06T04:38:23;30.53;;;19.77;;
56860;SDS011;42744;51.094;3.490;2023-04-06T04:40:49;29.27;;;19.87;;
56860;SDS011;42744;51.094;3.490;2023-04-06T04:43:15;30.73;;;19.60;;
56860;SDS011;42744;51.094;3.490;2023-04-06T04:45:41;32.37;;;19.07;;
56860;SDS011;42744;51.094;3.490;2023-04-06T04:48:08;28.00;;;18.00;;
56860;SDS011;42744;51.094;3.490;2023-04-06T04:50:35;27.87;;;19.00;;
56860;SDS011;42744;51.094;3.490;2023-04-06T04:53:01;33.57;;;19.13;;
56860;SDS011;42744;51.094;3.490;2023-04-06T04:55:27;28.20;;;18.37;;
56860;SDS011;42744;51.094;3.490;2023-04-06T04:57:54;30.13;;;18.50;;
56860;SDS011;42744;51.094;3.490;2023-04-06T05:00:21;24.77;;;16.93;;
56860;SDS011;42744;51.094;3.490;2023-04-06T05:02:48;25.60;;;16.07;;
56860;SDS011;42744;51.094;3.490;2023-04-06T05:05:15;24.50;;;16.30;;
56860;SDS011;42744;51.094;3.490;2023-04-06T05:07:41;24.30;;;15.07;;
56860;SDS011;42744;51.094;3.490;2023-04-06T05:10:08;21.03;;;14.10;;
56860;SDS011;42744;51.094;3.490;2023-04-06T05:12:36;23.17;;;15.03;;
56860;SDS011;42744;51.094;3.490;2023-04-06T05:15:03;22.27;;;15.13;;
56860;SDS011;42744;51.094;3.490;2023-04-06T05:17:30;20.07;;;14.07;;
56860;SDS011;42744;51.094;3.490;2023-04-06T05:19:57;22.23;;;13.83;;
56860;SDS011;42744;51.094;3.490;2023-04-06T05:22:23;20.53;;;13.80;;
56860;SDS011;42744;51.094;3.490;2023-04-06T05:24:52;24.73;;;14.70;;
56860;SDS011;42744;51.094;3.490;2023-04-06T05:27:18;21.43;;;14.40;;
56860;SDS011;42744;51.094;3.490;2023-04-06T05:29:45;21.67;;;14.17;;
56860;SDS011;42744;51.094;3.490;2023-04-06T05:32:12;19.40;;;14.40;;
56860;SDS011;42744;51.094;3.490;2023-04-06T05:34:39;20.97;;;15.20;;
56860;SDS011;42744;51.094;3.490;2023-04-06T05:37:05;24.50;;;15.00;;
56860;SDS011;42744;51.094;3.490;2023-04-06T05:39:31;24.37;;;15.40;;
56860;SDS011;42744;51.094;3.490;2023-04-06T05:41:58;20.10;;;14.03;;
56860;SDS011;42744;51.094;3.490;2023-04-06T05:44:27;18.73;;;13.77;;
56860;SDS011;42744;51.094;3.490;2023-04-06T05:46:55;22.03;;;13.30;;
56860;SDS011;42744;51.094;3.490;2023-04-06T05:49:21;21.10;;;14.07;;
56860;SDS011;42744;51.094;3.490;2023-04-06T05:51:47;19.13;;;13.97;;
56860;SDS011;42744;51.094;3.490;2023-04-06T05:54:14;22.23;;;13.60;;
56860;SDS011;42744;51.094;3.490;2023-04-06T05:56:40;22.43;;;14.17;;
56860;SDS011;42744;51.094;3.490;2023-04-06T05:59:08;21.27;;;13.63;;
56860;SDS011;42744;51.094;3.490;2023-04-06T06:01:35;21.17;;;13.60;;
56860;SDS011;42744;51.094;3.490;2023-04-06T06:04:02;17.70;;;12.23;;
56860;SDS011;42744;51.094;3.490;2023-04-06T06:06:29;17.47;;;13.17;;
56860;SDS011;42744;51.094;3.490;2023-04-06T06:09:00;19.17;;;12.87;;
56860;SDS011;42744;51.094;3.490;2023-04-06T06:11:30;17.00;;;12.20;;
56860;SDS011;42744;51.094;3.490;2023-04-06T06:13:58;20.50;;;12.63;;
56860;SDS011;42744;51.094;3.490;2023-04-06T06:16:24;18.10;;;12.73;;
56860;SDS011;42744;51.094;3.490;2023-04-06T06:18:51;21.60;;;13.80;;
56860;SDS011;42744;51.094;3.490;2023-04-06T06:21:18;18.93;;;12.87;;
56860;SDS011;42744;51.094;3.490;2023-04-06T06:23:44;20.53;;;13.67;;
56860;SDS011;42744;51.094;3.490;2023-04-06T06:26:12;20.67;;;14.00;;
56860;SDS011;42744;51.094;3.490;2023-04-06T06:28:38;18.90;;;13.00;;
56860;SDS011;42744;51.094;3.490;2023-04-06T06:31:04;20.30;;;13.87;;
56860;SDS011;42744;51.094;3.490;2023-04-06T06:33:30;21.93;;;14.10;;
56860;SDS011;42744;51.094;3.490;2023-04-06T06:35:56;22.87;;;12.40;;
56860;SDS011;42744;51.094;3.490;2023-04-06T06:38:22;18.07;;;12.13;;
56860;SDS011;42744;51.094;3.490;2023-04-06T06:40:49;17.60;;;11.63;;
56860;SDS011;42744;51.094;3.490;2023-04-06T06:43:15;18.07;;;11.37;;
56860;SDS011;42744;51.094;3.490;2023-04-06T06:45:43;16.37;;;10.90;;
56860;SDS011;42744;51.094;3.490;2023-04-06T06:48:11;21.30;;;11.63;;
56860;SDS011;42744;51.094;3.490;2023-04-06T06:50:38;19.27;;;12.13;;
56860;SDS011;42744;51.094;3.490;2023-04-06T06:53:05;17.57;;;12.20;;
56860;SDS011;42744;51.094;3.490;2023-04-06T06:55:32;21.33;;;12.13;;
56860;SDS011;42744;51.094;3.490;2023-04-06T06:57:58;19.03;;;11.90;;
56860;SDS011;42744;51.094;3.490;2023-04-06T07:00:24;17.30;;;12.00;;
56860;SDS011;42744;51.094;3.490;2023-04-06T07:02:51;21.70;;;12.43;;
56860;SDS011;42744;51.094;3.490;2023-04-06T07:05:17;19.53;;;12.47;;
56860;SDS011;42744;51.094;3.490;2023-04-06T07:07:43;19.57;;;11.47;;
56860;SDS011;42744;51.094;3.490;2023-04-06T07:10:10;23.10;;;13.37;;
56860;SDS011;42744;51.094;3.490;2023-04-06T07:12:36;22.23;;;13.93;;
56860;SDS011;42744;51.094;3.490;2023-04-06T07:15:03;20.40;;;12.30;;
56860;SDS011;42744;51.094;3.490;2023-04-06T07:17:29;18.77;;;12.63;;
56860;SDS011;42744;51.094;3.490;2023-04-06T07:19:55;16.83;;;11.73;;
56860;SDS011;42744;51.094;3.490;2023-04-06T07:22:21;19.60;;;11.77;;
56860;SDS011;42744;51.094;3.490;2023-04-06T07:24:51;19.03;;;12.57;;
56860;SDS011;42744;51.094;3.490;2023-04-06T07:27:17;22.60;;;12.67;;
56860;SDS011;42744;51.094;3.490;2023-04-06T07:29:44;19.33;;;12.03;;
56860;SDS011;42744;51.094;3.490;2023-04-06T07:32:10;19.27;;;11.00;;
56860;SDS011;42744;51.094;3.490;2023-04-06T07:34:36;21.70;;;11.97;;
56860;SDS011;42744;51.094;3.490;2023-04-06T07:37:02;18.33;;;10.83;;
56860;SDS011;42744;51.094;3.490;2023-04-06T07:39:29;20.00;;;11.53;;
56860;SDS011;42744;51.094;3.490;2023-04-06T07:41:56;21.23;;;11.27;;
56860;SDS011;42744;51.094;3.490;2023-04-06T07:44:22;18.67;;;11.27;;
56860;SDS011;42744;51.094;3.490;2023-04-06T07:46:48;16.40;;;10.73;;
56860;SDS011;42744;51.094;3.490;2023-04-06T07:49:14;17.83;;;10.33;;
56860;SDS011;42744;51.094;3.490;2023-04-06T07:51:40;17.30;;;10.60;;
56860;SDS011;42744;51.094;3.490;2023-04-06T07:54:07;19.57;;;10.93;;
56860;SDS011;42744;51.094;3.490;2023-04-06T07:56:33;14.70;;;9.83;;
56860;SDS011;42744;51.094;3.490;2023-04-06T07:58:59;16.83;;;9.90;;
56860;SDS011;42744;51.094;3.490;2023-04-06T08:01:27;20.73;;;10.43;;
56860;SDS011;42744;51.094;3.490;2023-04-06T08:03:54;17.03;;;10.23;;
56860;SDS011;42744;51.094;3.490;2023-04-06T08:06:21;16.40;;;9.17;;
56860;SDS011;42744;51.094;3.490;2023-04-06T08:08:47;15.20;;;9.43;;
56860;SDS011;42744;51.094;3.490;2023-04-06T08:11:13;14.07;;;9.30;;
56860;SDS011;42744;51.094;3.490;2023-04-06T08:13:39;14.83;;;9.37;;
56860;SDS011;42744;51.094;3.490;2023-04-06T08:16:05;15.50;;;9.50;;
56860;SDS011;42744;51.094;3.490;2023-04-06T08:18:32;16.73;;;9.20;;
56860;SDS011;42744;51.094;3.490;2023-04-06T08:20:58;17.40;;;9.67;;
56860;SDS011;42744;51.094;3.490;2023-04-06T08:23:23;17.23;;;9.90;;
56860;SDS011;42744;51.094;3.490;2023-04-06T08:25:52;13.27;;;9.33;;
56860;SDS011;42744;51.094;3.490;2023-04-06T08:28:21;16.83;;;10.13;;
56860;SDS011;42744;51.094;3.490;2023-04-06T08:30:47;15.13;;;9.30;;
56860;SDS011;42744;51.094;3.490;2023-04-06T08:33:13;17.87;;;9.47;;
56860;SDS011;42744;51.094;3.490;2023-04-06T08:35:40;15.03;;;9.97;;
56860;SDS011;42744;51.094;3.490;2023-04-06T08:38:06;17.77;;;10.43;;
56860;SDS011;42744;51.094;3.490;2023-04-06T08:40:39;19.17;;;10.80;;
56860;SDS011;42744;51.094;3.490;2023-04-06T08:43:09;19.10;;;11.13;;
56860;SDS011;42744;51.094;3.490;2023-04-06T08:45:38;20.50;;;11.63;;
56860;SDS011;42744;51.094;3.490;2023-04-06T08:48:05;17.83;;;11.70;;
56860;SDS011;42744;51.094;3.490;2023-04-06T08:50:34;22.50;;;12.90;;
56860;SDS011;42744;51.094;3.490;2023-04-06T08:53:01;21.17;;;13.10;;
56860;SDS011;42744;51.094;3.490;2023-04-06T08:55:27;21.10;;;12.50;;
56860;SDS011;42744;51.094;3.490;2023-04-06T08:57:54;22.33;;;12.97;;
56860;SDS011;42744;51.094;3.490;2023-04-06T09:00:21;19.90;;;12.50;;
56860;SDS011;42744;51.094;3.490;2023-04-06T09:02:48;20.07;;;12.97;;
56860;SDS011;42744;51.094;3.490;2023-04-06T09:05:16;20.77;;;13.80;;
56860;SDS011;42744;51.094;3.490;2023-04-06T09:07:42;22.17;;;14.10;;
56860;SDS011;42744;51.094;3.490;2023-04-06T09:10:10;20.90;;;14.07;;
56860;SDS011;42744;51.094;3.490;2023-04-06T09:12:36;22.50;;;14.53;;
56860;SDS011;42744;51.094;3.490;2023-04-06T09:15:02;21.83;;;13.93;;
56860;SDS011;42744;51.094;3.490;2023-04-06T09:17:29;23.20;;;14.67;;
56860;SDS011;42744;51.094;3.490;2023-04-06T09:19:59;21.33;;;15.03;;
56860;SDS011;42744;51.094;3.490;2023-04-06T09:22:34;24.47;;;15.03;;
56860;SDS011;42744;51.094;3.490;2023-04-06T09:25:04;24.67;;;14.90;;
56860;SDS011;42744;51.094;3.490;2023-04-06T09:27:34;24.17;;;15.80;;
56860;SDS011;42744;51.094;3.490;2023-04-06T09:30:08;22.90;;;15.07;;
56860;SDS011;42744;51.094;3.490;2023-04-06T09:32:49;22.60;;;15.43;;
56860;SDS011;42744;51.094;3.490;2023-04-06T09:35:16;23.37;;;16.20;;
56860;SDS011;42744;51.094;3.490;2023-04-06T09:37:43;20.53;;;14.50;;
56860;SDS011;42744;51.094;3.490;2023-04-06T09:40:09;23.63;;;15.33;;
56860;SDS011;42744;51.094;3.490;2023-04-06T09:42:36;22.67;;;15.23;;
56860;SDS011;42744;51.094;3.490;2023-04-06T09:45:02;21.67;;;14.57;;
56860;SDS011;42744;51.094;3.490;2023-04-06T09:47:30;23.60;;;14.53;;
56860;SDS011;42744;51.094;3.490;2023-04-06T09:49:57;19.50;;;14.53;;
56860;SDS011;42744;51.094;3.490;2023-04-06T09:52:31;21.83;;;14.40;;
56860;SDS011;42744;51.094;3.490;2023-04-06T09:55:02;19.87;;;14.70;;
56860;SDS011;42744;51.094;3.490;2023-04-06T10:00:34;17.93;;;13.67;;
56860;SDS011;42744;51.094;3.490;2023-04-06T10:05:50;19.40;;;13.50;;
56860;SDS011;42744;51.094;3.490;2023-04-06T10:08:21;16.20;;;12.17;;
56860;SDS011;42744;51.094;3.490;2023-04-06T10:10:50;17.17;;;12.47;;
56860;SDS011;42744;51.094;3.490;2023-04-06T10:13:16;17.30;;;12.50;;
56860;SDS011;42744;51.094;3.490;2023-04-06T10:15:44;16.57;;;12.03;;
56860;SDS011;42744;51.094;3.490;2023-04-06T10:18:10;17.40;;;12.40;;
56860;SDS011;42744;51.094;3.490;2023-04-06T10:23:32;14.33;;;11.30;;
56860;SDS011;42744;51.094;3.490;2023-04-06T10:26:01;13.33;;;10.53;;
56860;SDS011;42744;51.094;3.490;2023-04-06T10:28:35;17.03;;;11.10;;
56860;SDS011;42744;51.094;3.490;2023-04-06T10:31:04;14.23;;;10.70;;
56860;SDS011;42744;51.094;3.490;2023-04-06T10:33:31;12.83;;;10.13;;
56860;SDS011;42744;51.094;3.490;2023-04-06T10:35:58;12.50;;;9.83;;
56860;SDS011;42744;51.094;3.490;2023-04-06T10:38:37;13.30;;;9.60;;
56860;SDS011;42744;51.094;3.490;2023-04-06T10:41:04;13.07;;;10.33;;
56860;SDS011;42744;51.094;3.490;2023-04-06T10:43:35;11.97;;;9.20;;
56860;SDS011;42744;51.094;3.490;2023-04-06T10:46:03;13.30;;;9.47;;
56860;SDS011;42744;51.094;3.490;2023-04-06T10:48:40;11.93;;;9.10;;
56860;SDS011;42744;51.094;3.490;2023-04-06T10:51:18;12.23;;;9.63;;
56860;SDS011;42744;51.094;3.490;2023-04-06T10:53:46;11.90;;;8.77;;
56860;SDS011;42744;51.094;3.490;2023-04-06T10:56:14;9.00;;;7.50;;
56860;SDS011;42744;51.094;3.490;2023-04-06T10:58:45;8.93;;;7.47;;
56860;SDS011;42744;51.094;3.490;2023-04-06T11:01:15;8.30;;;7.00;;
56860;SDS011;42744;51.094;3.490;2023-04-06T11:03:46;8.83;;;6.73;;
56860;SDS011;42744;51.094;3.490;2023-04-06T11:06:24;8.23;;;7.43;;
56860;SDS011;42744;51.094;3.490;2023-04-06T11:08:52;7.77;;;6.33;;
56860;SDS011;42744;51.094;3.490;2023-04-06T11:11:20;8.23;;;6.80;;
56860;SDS011;42744;51.094;3.490;2023-04-06T11:13:54;7.93;;;6.50;;
56860;SDS011;42744;51.094;3.490;2023-04-06T11:16:25;8.27;;;6.60;;
56860;SDS011;42744;51.094;3.490;2023-04-06T11:21:38;8.50;;;6.40;;
56860;SDS011;42744;51.094;3.490;2023-04-06T11:26:36;7.50;;;6.13;;
56860;SDS011;42744;51.094;3.490;2023-04-06T11:29:06;7.23;;;6.43;;
56860;SDS011;42744;51.094;3.490;2023-04-06T11:31:45;8.27;;;6.07;;
56860;SDS011;42744;51.094;3.490;2023-04-06T11:34:17;7.37;;;6.67;;
56860;SDS011;42744;51.094;3.490;2023-04-06T11:36:45;7.90;;;6.77;;
56860;SDS011;42744;51.094;3.490;2023-04-06T11:39:18;7.40;;;6.70;;
56860;SDS011;42744;51.094;3.490;2023-04-06T11:41:49;8.93;;;7.10;;
56860;SDS011;42744;51.094;3.490;2023-04-06T11:44:28;8.93;;;7.27;;
56860;SDS011;42744;51.094;3.490;2023-04-06T11:46:58;10.13;;;8.33;;
56860;SDS011;42744;51.094;3.490;2023-04-06T11:49:29;9.80;;;8.13;;
56860;SDS011;42744;51.094;3.490;2023-04-06T11:51:55;12.33;;;9.13;;
56860;SDS011;42744;51.094;3.490;2023-04-06T11:54:31;9.93;;;8.67;;
56860;SDS011;42744;51.094;3.490;2023-04-06T11:56:58;11.30;;;9.50;;
56860;SDS011;42744;51.094;3.490;2023-04-06T11:59:26;12.27;;;9.17;;
56860;SDS011;42744;51.094;3.490;2023-04-06T12:01:53;10.90;;;9.37;;
56860;SDS011;42744;51.094;3.490;2023-04-06T12:04:20;12.37;;;10.33;;
56860;SDS011;42744;51.094;3.490;2023-04-06T12:06:46;12.93;;;10.07;;
56860;SDS011;42744;51.094;3.490;2023-04-06T12:09:13;13.47;;;10.63;;
56860;SDS011;42744;51.094;3.490;2023-04-06T12:11:39;13.77;;;10.67;;
56860;SDS011;42744;51.094;3.490;2023-04-06T12:14:06;13.67;;;10.63;;
56860;SDS011;42744;51.094;3.490;2023-04-06T12:16:33;14.07;;;11.13;;
56860;SDS011;42744;51.094;3.490;2023-04-06T12:19:00;16.47;;;11.93;;
56860;SDS011;42744;51.094;3.490;2023-04-06T12:21:26;14.43;;;11.00;;
56860;SDS011;42744;51.094;3.490;2023-04-06T12:23:59;14.63;;;12.13;;
56860;SDS011;42744;51.094;3.490;2023-04-06T12:26:26;15.10;;;11.93;;
56860;SDS011;42744;51.094;3.490;2023-04-06T12:28:59;16.63;;;12.13;;
56860;SDS011;42744;51.094;3.490;2023-04-06T12:31:35;14.57;;;12.73;;
56860;SDS011;42744;51.094;3.490;2023-04-06T12:34:01;16.53;;;12.13;;
56860;SDS011;42744;51.094;3.490;2023-04-06T12:36:28;16.13;;;11.73;;
56860;SDS011;42744;51.094;3.490;2023-04-06T12:38:55;19.50;;;14.30;;
56860;SDS011;42744;51.094;3.490;2023-04-06T12:41:21;15.20;;;12.20;;
56860;SDS011;42744;51.094;3.490;2023-04-06T12:43:48;14.87;;;12.17;;
56860;SDS011;42744;51.094;3.490;2023-04-06T12:46:17;13.87;;;11.93;;
56860;SDS011;42744;51.094;3.490;2023-04-06T12:48:43;16.20;;;11.70;;
56860;SDS011;42744;51.094;3.490;2023-04-06T12:51:09;15.97;;;12.13;;
56860;SDS011;42744;51.094;3.490;2023-04-06T12:53:36;14.07;;;11.47;;
56860;SDS011;42744;51.094;3.490;2023-04-06T12:56:02;14.77;;;10.80;;
56860;SDS011;42744;51.094;3.490;2023-04-06T12:58:36;14.57;;;12.13;;
56860;SDS011;42744;51.094;3.490;2023-04-06T13:01:05;14.57;;;11.53;;
56860;SDS011;42744;51.094;3.490;2023-04-06T13:03:32;15.57;;;11.13;;
56860;SDS011;42744;51.094;3.490;2023-04-06T13:05:59;15.37;;;11.47;;
56860;SDS011;42744;51.094;3.490;2023-04-06T13:08:26;13.57;;;10.93;;
56860;SDS011;42744;51.094;3.490;2023-04-06T13:10:52;12.43;;;11.13;;
56860;SDS011;42744;51.094;3.490;2023-04-06T13:13:23;14.10;;;11.13;;
56860;SDS011;42744;51.094;3.490;2023-04-06T13:15:51;13.07;;;10.67;;
56860;SDS011;42744;51.094;3.490;2023-04-06T13:18:18;13.37;;;11.17;;
56860;SDS011;42744;51.094;3.490;2023-04-06T13:20:46;12.93;;;10.83;;
56860;SDS011;42744;51.094;3.490;2023-04-06T13:23:13;13.53;;;10.03;;
56860;SDS011;42744;51.094;3.490;2023-04-06T13:25:39;11.67;;;10.20;;
56860;SDS011;42744;51.094;3.490;2023-04-06T13:28:09;13.30;;;10.43;;
56860;SDS011;42744;51.094;3.490;2023-04-06T13:30:36;10.97;;;9.50;;
56860;SDS011;42744;51.094;3.490;2023-04-06T13:33:02;14.80;;;10.17;;
56860;SDS011;42744;51.094;3.490;2023-04-06T13:35:30;12.00;;;10.33;;
56860;SDS011;42744;51.094;3.490;2023-04-06T13:37:56;13.43;;;10.50;;
56860;SDS011;42744;51.094;3.490;2023-04-06T13:40:21;11.90;;;10.20;;
56860;SDS011;42744;51.094;3.490;2023-04-06T13:42:48;14.87;;;12.03;;
56860;SDS011;42744;51.094;3.490;2023-04-06T13:45:14;16.13;;;11.23;;
56860;SDS011;42744;51.094;3.490;2023-04-06T13:47:40;14.47;;;11.80;;
56860;SDS011;42744;51.094;3.490;2023-04-06T13:50:06;14.27;;;11.67;;
56860;SDS011;42744;51.094;3.490;2023-04-06T13:52:33;15.47;;;10.57;;
56860;SDS011;42744;51.094;3.490;2023-04-06T13:55:01;12.37;;;10.47;;
56860;SDS011;42744;51.094;3.490;2023-04-06T13:57:28;16.37;;;10.77;;
56860;SDS011;42744;51.094;3.490;2023-04-06T13:59:55;14.87;;;10.70;;
56860;SDS011;42744;51.094;3.490;2023-04-06T14:02:21;11.50;;;9.60;;
56860;SDS011;42744;51.094;3.490;2023-04-06T14:04:52;12.03;;;9.80;;
56860;SDS011;42744;51.094;3.490;2023-04-06T14:07:20;16.10;;;9.93;;
56860;SDS011;42744;51.094;3.490;2023-04-06T14:09:46;12.37;;;9.77;;
56860;SDS011;42744;51.094;3.490;2023-04-06T14:12:12;13.27;;;10.37;;
56860;SDS011;42744;51.094;3.490;2023-04-06T14:14:38;12.87;;;10.10;;
56860;SDS011;42744;51.094;3.490;2023-04-06T14:17:04;12.17;;;8.17;;
56860;SDS011;42744;51.094;3.490;2023-04-06T14:19:31;13.27;;;8.80;;
56860;SDS011;42744;51.094;3.490;2023-04-06T14:21:57;12.63;;;7.73;;
56860;SDS011;42744;51.094;3.490;2023-04-06T14:24:24;14.37;;;8.13;;
56860;SDS011;42744;51.094;3.490;2023-04-06T14:26:50;13.13;;;8.57;;
56860;SDS011;42744;51.094;3.490;2023-04-06T14:29:16;10.13;;;8.83;;
56860;SDS011;42744;51.094;3.490;2023-04-06T14:31:42;15.40;;;9.17;;
56860;SDS011;42744;51.094;3.490;2023-04-06T14:34:12;13.83;;;8.70;;
56860;SDS011;42744;51.094;3.490;2023-04-06T14:36:38;11.23;;;9.17;;
56860;SDS011;42744;51.094;3.490;2023-04-06T14:39:05;11.87;;;6.77;;